createdAt,value
2019-03-30T00:01:23.089Z,7.85
2019-03-30T00:06:32.546Z,8.44
2019-03-30T00:11:41.166Z,8.84
2019-03-30T00:16:54.461Z,7.98
2019-03-30T00:21:52.982Z,9.21
2019-03-30T00:27:01.912Z,7.88
2019-03-30T00:32:10.940Z,9.07
2019-03-30T00:37:19.941Z,8.12
2019-03-30T00:42:28.475Z,8.32
2019-03-30T00:47:40.855Z,7.06
2019-03-30T00:52:39.156Z,7.44
2019-03-30T00:57:48.342Z,7.80
2019-03-30T01:02:56.889Z,8.94
2019-03-30T01:08:05.762Z,7.74
2019-03-30T01:13:15.109Z,9.32
2019-03-30T01:18:24.817Z,7.92
2019-03-30T01:23:34.264Z,8.47
2019-03-30T01:28:43.466Z,8.83
2019-03-30T01:33:51.988Z,8.50
2019-03-30T01:39:01.195Z,9.13
2019-03-30T01:44:10.520Z,8.60
2019-03-30T01:49:19.386Z,8.52
2019-03-30T01:54:27.919Z,7.72
2019-03-30T01:59:36.523Z,9.04
2019-03-30T02:04:45.645Z,8.03
2019-03-30T02:09:54.416Z,9.23
2019-03-30T02:15:03.063Z,9.50
2019-03-30T02:25:15.775Z,8.06
2019-03-30T02:30:24.732Z,7.31
2019-03-30T02:35:33.372Z,8.07
2019-03-30T02:40:42.245Z,6.93
2019-03-30T02:45:50.839Z,7.41
2019-03-30T02:51:00.035Z,7.90
2019-03-30T02:56:09.275Z,7.30
2019-03-30T03:01:18.165Z,9.19
2019-03-30T03:06:26.664Z,7.65
2019-03-30T03:11:35.316Z,7.48
2019-03-30T03:16:44.054Z,8.79
2019-03-30T03:21:52.897Z,8.69
2019-03-30T03:27:01.640Z,8.02
2019-03-30T03:32:10.518Z,9.33
2019-03-30T03:37:19.328Z,9.89
2019-03-30T03:42:28.524Z,8.34
2019-03-30T03:47:37.070Z,7.62
2019-03-30T03:52:45.967Z,9.61
2019-03-30T03:57:54.531Z,9.64
2019-03-30T04:03:03.640Z,8.61
2019-03-30T04:08:12.476Z,9.15
2019-03-30T04:13:25.221Z,8.81
2019-03-30T04:18:23.656Z,9.30
2019-03-30T04:23:32.345Z,12.89
2019-03-30T04:28:41.031Z,10.42
2019-03-30T04:33:49.742Z,9.12
2019-03-30T04:38:58.434Z,9.14
2019-03-30T04:44:07.719Z,8.31
2019-03-30T04:54:20.328Z,9.56
2019-03-30T04:59:29.074Z,11.72
2019-03-30T05:04:37.902Z,9.52
2019-03-30T05:09:46.790Z,8.53
2019-03-30T05:14:55.711Z,7.74
2019-03-30T05:20:04.453Z,9.12
2019-03-30T05:25:13.597Z,8.51
2019-03-30T05:30:22.314Z,7.29
2019-03-30T05:35:31.140Z,8.06
2019-03-30T05:40:39.685Z,9.52
2019-03-30T05:45:48.484Z,7.84
2019-03-30T05:50:57.023Z,8.52
2019-03-30T05:56:05.664Z,9.74
2019-03-30T06:01:14.208Z,9.45
2019-03-30T06:06:22.887Z,9.33
2019-03-30T06:11:31.579Z,8.77
2019-03-30T06:16:40.585Z,8.34
2019-03-30T06:21:49.043Z,8.87
2019-03-30T06:26:57.976Z,9.60
2019-03-30T06:32:06.742Z,9.69
2019-03-30T06:37:20.957Z,9.43
2019-03-30T06:42:19.448Z,10.39
2019-03-30T06:47:28.454Z,11.64
2019-03-30T06:52:37.320Z,9.18
2019-03-30T06:57:52.812Z,9.33
2019-03-30T07:02:51.466Z,9.75
2019-03-30T07:08:03.084Z,10.04
2019-03-30T07:13:06.219Z,11.34
2019-03-30T07:18:07.075Z,10.11
2019-03-30T07:23:11.876Z,10.86
2019-03-30T07:28:16.402Z,11.14
2019-03-30T07:33:15.357Z,11.84
2019-03-30T07:38:25.597Z,10.28
2019-03-30T07:43:24.315Z,9.79
2019-03-30T07:48:38.401Z,12.26
2019-03-30T07:53:44.465Z,9.07
2019-03-30T07:58:46.819Z,10.33
2019-03-30T08:03:56.473Z,10.71
2019-03-30T08:09:04.721Z,10.21
2019-03-30T08:14:15.093Z,11.65
2019-03-30T08:19:14.231Z,12.63
2019-03-30T08:24:23.379Z,12.27
2019-03-30T08:29:33.409Z,12.25
2019-03-30T08:34:32.428Z,13.20
2019-03-30T08:44:45.641Z,15.90
2019-03-30T08:49:54.691Z,17.95
2019-03-30T08:55:03.927Z,16.58
2019-03-30T09:00:14.540Z,16.68
2019-03-30T09:05:13.349Z,15.37
2019-03-30T09:10:27.336Z,15.89
2019-03-30T09:15:26.060Z,15.53
2019-03-30T09:20:38.192Z,19.63
2019-03-30T09:25:37.017Z,18.31
2019-03-30T09:30:46.440Z,19.75
2019-03-30T09:35:56.693Z,18.54
2019-03-30T09:40:55.873Z,19.55
2019-03-30T09:46:05.046Z,17.14
2019-03-30T09:51:14.569Z,16.75
2019-03-30T10:01:26.824Z,16.50
2019-03-30T10:06:35.681Z,19.07
2019-03-30T10:11:44.907Z,18.00
2019-03-30T10:16:54.275Z,17.19
2019-03-30T10:22:05.110Z,16.55
2019-03-30T10:27:03.583Z,17.80
2019-03-30T10:32:12.802Z,18.28
2019-03-30T10:37:22.410Z,18.14
2019-03-30T10:42:31.468Z,18.24
2019-03-30T10:47:40.573Z,19.99
2019-03-30T10:52:49.760Z,19.15
2019-03-30T10:57:59.464Z,19.69
2019-03-30T11:03:08.773Z,18.02
2019-03-30T11:08:17.897Z,19.05
2019-03-30T11:13:27.571Z,19.83
2019-03-30T11:18:38.003Z,18.85
2019-03-30T11:23:37.221Z,18.64
2019-03-30T11:28:46.593Z,18.27
2019-03-30T11:33:57.662Z,17.49
2019-03-30T11:38:56.651Z,19.01
2019-03-30T11:44:06.093Z,17.62
2019-03-30T11:49:15.261Z,19.56
2019-03-30T11:54:25.488Z,18.59
2019-03-30T11:59:24.525Z,16.38
2019-03-30T12:04:33.861Z,17.93
2019-03-30T12:09:43.995Z,19.18
2019-03-30T12:14:43.226Z,20.18
2019-03-30T12:19:52.032Z,18.84
2019-03-30T12:25:03.100Z,17.78
2019-03-30T12:30:02.080Z,20.76
2019-03-30T12:35:13.676Z,17.58
2019-03-30T12:40:12.286Z,17.96
2019-03-30T12:45:21.777Z,19.33
2019-03-30T12:50:30.919Z,17.02
2019-03-30T12:55:52.826Z,19.32
2019-03-30T13:00:41.337Z,19.13
2019-03-30T13:05:50.728Z,16.49
2019-03-30T13:11:00.063Z,20.03
2019-03-30T13:16:09.399Z,18.14
2019-03-30T13:21:18.453Z,18.45
2019-03-30T13:26:27.966Z,15.66
2019-03-30T13:31:38.277Z,14.92
2019-03-30T13:36:38.543Z,15.61
2019-03-30T13:41:37.703Z,16.82
2019-03-30T13:46:46.981Z,16.30
2019-03-30T13:51:58.500Z,13.02
2019-03-30T13:56:58.378Z,13.04
2019-03-30T14:01:57.534Z,15.25
2019-03-30T14:07:07.091Z,10.97
2019-03-30T14:12:16.386Z,12.58
2019-03-30T14:17:25.836Z,12.96
2019-03-30T14:22:34.896Z,11.47
2019-03-30T14:27:44.163Z,10.58
2019-03-30T14:32:53.869Z,13.14
2019-03-30T14:38:03.182Z,11.96
2019-03-30T14:43:12.059Z,11.54
2019-03-30T14:48:21.269Z,10.98
2019-03-30T14:53:30.376Z,13.97
2019-03-30T14:58:39.613Z,10.98
2019-03-30T15:03:48.777Z,11.44
2019-03-30T15:08:58.207Z,10.93
2019-03-30T15:14:07.442Z,10.59
2019-03-30T15:19:17.604Z,10.20
2019-03-30T15:24:17.036Z,10.59
2019-03-30T15:29:26.352Z,9.76
2019-03-30T15:34:35.896Z,10.31
2019-03-30T15:39:45.089Z,10.31
2019-03-30T15:44:58.571Z,10.94
2019-03-30T15:50:01.404Z,9.53
2019-03-30T15:55:00.555Z,10.67
2019-03-30T16:00:10.421Z,11.32
2019-03-30T16:10:24.308Z,9.60
2019-03-30T16:15:33.799Z,10.40
2019-03-30T16:20:43.082Z,10.59
2019-03-30T16:25:52.758Z,8.81
2019-03-30T16:31:02.233Z,8.61
2019-03-30T16:36:11.869Z,8.52
2019-03-30T16:41:24.583Z,6.95
2019-03-30T16:46:25.966Z,4.77
2019-03-30T16:51:24.908Z,4.02
2019-03-30T16:56:34.305Z,7.65
2019-03-30T17:01:43.778Z,6.76
2019-03-30T17:06:52.871Z,9.37
2019-03-30T17:12:02.454Z,8.62
2019-03-30T17:17:11.791Z,10.58
2019-03-30T17:22:21.030Z,10.27
2019-03-30T17:27:31.534Z,9.95
2019-03-30T17:32:31.936Z,10.25
2019-03-30T17:37:31.170Z,10.05
2019-03-30T17:42:40.891Z,9.29
2019-03-30T17:47:50.026Z,7.75
2019-03-30T17:52:59.403Z,10.54
2019-03-30T17:58:13.394Z,8.22
2019-03-30T18:03:18.569Z,9.83
2019-03-30T18:08:17.561Z,8.82
2019-03-30T18:13:27.635Z,10.15
2019-03-30T18:18:26.615Z,12.25
2019-03-30T18:23:36.044Z,11.32
2019-03-30T18:28:45.674Z,10.17
2019-03-30T18:34:05.165Z,13.51
2019-03-30T18:39:09.823Z,25.90
2019-03-30T18:44:13.559Z,24.21
2019-03-30T18:49:22.672Z,19.16
2019-03-30T18:54:32.297Z,18.79
2019-03-30T18:59:42.779Z,17.42
2019-03-30T19:04:41.725Z,19.61
2019-03-30T19:09:50.906Z,16.87
2019-03-30T19:15:00.588Z,18.24
2019-03-30T19:20:10.511Z,18.12
2019-03-30T19:25:19.935Z,20.80
2019-03-30T19:30:30.362Z,16.84
2019-03-30T19:35:29.478Z,23.76
2019-03-30T19:40:39.358Z,20.35
2019-03-30T19:45:49.512Z,21.77
2019-03-30T19:50:50.874Z,23.65
2019-03-30T19:55:50.495Z,22.20
2019-03-30T20:01:00.516Z,20.09
2019-03-30T20:05:59.114Z,19.64
2019-03-30T20:11:09.032Z,21.44
2019-03-30T20:16:22.429Z,18.05
2019-03-30T20:21:21.756Z,18.00
2019-03-30T20:26:32.017Z,15.74
2019-03-30T20:31:30.878Z,16.84
2019-03-30T20:36:39.893Z,17.08
2019-03-30T20:41:49.484Z,19.33
2019-03-30T20:46:59.212Z,24.20
2019-03-30T20:52:11.004Z,25.37
2019-03-30T20:57:09.970Z,21.36
2019-03-30T21:02:28.080Z,18.56
2019-03-30T21:07:27.206Z,18.64
2019-03-30T21:12:41.248Z,19.88
2019-03-30T21:17:40.771Z,19.23
2019-03-30T21:22:53.181Z,18.06
2019-03-30T21:27:51.743Z,18.51
2019-03-30T21:38:13.008Z,23.84
2019-03-30T21:43:12.749Z,22.23
2019-03-30T21:48:22.646Z,19.59
2019-03-30T21:53:32.242Z,20.63
2019-03-30T21:58:42.889Z,22.48
2019-03-30T22:03:47.178Z,21.35
2019-03-30T22:08:46.922Z,19.57
2019-03-30T22:13:56.888Z,18.71
2019-03-30T22:18:56.411Z,19.00
2019-03-30T22:24:07.042Z,18.01
2019-03-30T22:29:06.189Z,21.10
2019-03-30T22:34:15.749Z,21.11
2019-03-30T22:39:26.204Z,20.35
2019-03-30T22:44:26.242Z,19.46
2019-03-30T22:49:35.548Z,20.64
2019-03-30T22:54:47.952Z,18.95
2019-03-30T22:59:47.433Z,22.27
2019-03-30T23:05:05.824Z,21.28
2019-03-30T23:10:04.500Z,17.68
2019-03-30T23:15:32.945Z,18.05
2019-03-30T23:20:24.263Z,18.18
2019-03-30T23:25:26.663Z,21.03
2019-03-30T23:30:27.393Z,20.55
2019-03-30T23:35:40.074Z,15.98
2019-03-30T23:40:39.961Z,14.97
2019-03-30T23:45:48.726Z,12.76
2019-03-30T23:50:57.952Z,13.76
2019-03-30T23:56:07.915Z,13.25
